North Hannibal, New York
Current Conditions -  °F | °C
As of 5:54 AM on Sunday 26 Oct 2014 (Local Time) from KFZY Reporting Station
Moderate Rain Moderate Rain  
Wind Chill: 41°   Ceiling: 3000
Heat Index: 46°   Visibility: 4mi
Dew Point: 42°   Wind: 12mph
Humidity: 86%   Direction: 270°W
Pressure: 29.58"   Gusts: NA
Location:  43.4571°N, 76.4163°W
Report Text: KFZY 260954Z AUTO 27010KT 4SM RA BR BKN030 OVC035 08/06 A2958 RMK AO2 PK WND 27027/0917 SLP019 P0019 T00780056
Loading
Personal Weather Stations






























Interactive Weather Map
Tropical Storm Tracking
New forecast layout! Learn more

10-Day Weather Forecast

Advertisements
Track Severe Weather on mobile